Time;durP1;ratioP1;P1;durP2;ratioP2;P2;SDS_P1;SDS_P2;PMS_P1;PMS_P2;Temp;Humidity;BMP_temperature;BMP_pressure;BME280_temperature;BME280_humidity;BME280_pressure;Samples;Min_cycle;Max_cycle;Signal;HPM_P1;HPM_P2
2022/07/20 00:01:20;;;;;;;6.65;2.80;;;25.50;63.70;;;;;;5095368;28;20521;-79
2022/07/20 00:03:49;;;;;;;7.68;3.10;;;25.40;63.90;;;;;;5113457;28;20073;-78
2022/07/20 00:06:15;;;;;;;12.10;3.25;;;25.40;64.10;;;;;;5114070;28;20047;-78
2022/07/20 00:11:26;;;;;;;6.43;2.80;;;25.30;64.40;;;;;;5135249;27;20103;-79
2022/07/20 00:13:55;;;;;;;8.05;2.97;;;25.20;64.50;;;;;;5135103;27;20070;-78
2022/07/20 00:16:24;;;;;;;9.93;2.92;;;25.20;64.60;;;;;;5115353;28;20047;-78
2022/07/20 00:18:53;;;;;;;8.30;2.95;;;25.10;64.60;;;;;;5117250;28;20055;-78
2022/07/20 00:21:20;;;;;;;6.88;2.95;;;25.00;64.60;;;;;;5135395;28;20051;-78
2022/07/20 00:23:47;;;;;;;9.95;2.97;;;25.00;64.70;;;;;;5115592;28;20047;-78
2022/07/20 00:26:14;;;;;;;9.20;3.63;;;25.00;64.90;;;;;;5117021;28;20115;-79
2022/07/20 00:28:41;;;;;;;4.60;2.88;;;25.00;65.00;;;;;;5135644;28;20071;-78
2022/07/20 00:31:08;;;;;;;7.45;3.00;;;24.90;65.10;;;;;;5116284;28;20058;-78
2022/07/20 00:33:36;;;;;;;7.63;2.80;;;24.80;65.00;;;;;;5116829;28;20074;-79
2022/07/20 00:36:04;;;;;;;5.85;3.13;;;24.90;65.20;;;;;;5134604;28;20043;-79
2022/07/20 00:38:31;;;;;;;6.07;2.90;;;24.80;65.10;;;;;;5114992;28;20043;-78
2022/07/20 00:40:58;;;;;;;4.70;2.80;;;24.80;65.30;;;;;;5134290;28;20047;-80
2022/07/20 00:43:25;;;;;;;6.30;2.50;;;24.70;65.40;;;;;;5134317;28;20051;-79
2022/07/20 00:45:52;;;;;;;10.18;3.40;;;24.70;65.50;;;;;;5133858;28;20043;-78
2022/07/20 00:48:19;;;;;;;5.47;3.03;;;24.60;65.60;;;;;;5134690;27;20055;-78
2022/07/20 00:50:46;;;;;;;4.32;2.78;;;24.50;65.60;;;;;;5138738;27;20406;-80
2022/07/20 00:53:14;;;;;;;7.68;3.25;;;24.50;65.70;;;;;;5137965;27;20107;-78
2022/07/20 00:55:43;;;;;;;4.18;2.50;;;24.50;65.80;;;;;;5138216;27;20059;-78
2022/07/20 00:58:09;;;;;;;5.68;2.88;;;24.40;65.90;;;;;;5120275;27;20051;-78
2022/07/20 01:00:36;;;;;;;7.88;2.90;;;24.40;66.10;;;;;;5120132;27;20047;-80
2022/07/20 01:03:03;;;;;;;7.32;2.95;;;24.30;66.70;;;;;;5139847;27;20096;-78
2022/07/20 01:05:31;;;;;;;9.77;3.10;;;24.30;66.30;;;;;;5139620;27;20500;-78
2022/07/20 01:07:57;;;;;;;6.30;3.13;;;24.20;67.00;;;;;;5122051;27;20509;-79
2022/07/20 01:10:26;;;;;;;4.45;2.75;;;24.20;66.60;;;;;;5100394;28;20091;-78
2022/07/20 01:12:53;;;;;;;6.45;3.05;;;24.10;66.60;;;;;;5098514;28;20048;-78
2022/07/20 01:15:19;;;;;;;5.03;2.78;;;24.10;66.80;;;;;;5117827;28;20051;-78
2022/07/20 01:17:46;;;;;;;8.40;3.35;;;24.00;67.00;;;;;;5099119;28;20100;-78
2022/07/20 01:20:16;;;;;;;7.57;3.00;;;24.00;67.20;;;;;;5098110;28;20514;-78
2022/07/20 01:22:44;;;;;;;6.93;3.33;;;24.00;67.30;;;;;;5099002;28;20051;-79
2022/07/20 01:25:11;;;;;;;4.70;3.05;;;23.90;68.00;;;;;;5117064;28;20104;-77
2022/07/20 01:27:38;;;;;;;6.70;2.85;;;23.80;67.60;;;;;;5099392;28;20051;-78
2022/07/20 01:30:06;;;;;;;9.75;3.30;;;23.80;68.00;;;;;;5117396;28;20044;-78
2022/07/20 01:32:33;;;;;;;6.65;2.85;;;23.70;68.50;;;;;;5099592;28;20457;-79
2022/07/20 01:35:00;;;;;;;6.03;2.95;;;23.60;68.90;;;;;;5099214;28;20056;-78
2022/07/20 01:37:29;;;;;;;6.40;3.30;;;23.50;69.40;;;;;;5117206;28;20047;-79
2022/07/20 01:39:58;;;;;;;6.45;2.88;;;23.40;69.80;;;;;;5135683;27;20051;-79
2022/07/20 01:42:25;;;;;;;5.75;3.25;;;23.30;70.10;;;;;;5119049;27;20047;-79
2022/07/20 01:44:52;;;;;;;7.70;2.85;;;23.30;70.60;;;;;;5137688;27;20051;-79
2022/07/20 01:47:19;;;;;;;5.82;3.08;;;23.20;70.90;;;;;;5136973;27;20059;-79
2022/07/20 01:49:46;;;;;;;9.10;3.10;;;23.10;71.10;;;;;;5136659;27;20050;-79
2022/07/20 01:52:12;;;;;;;6.32;3.20;;;23.10;71.00;;;;;;5118858;27;20047;-78
2022/07/20 01:54:39;;;;;;;6.45;3.33;;;23.10;71.00;;;;;;5117376;27;20054;-79
2022/07/20 01:57:07;;;;;;;6.30;2.80;;;23.00;70.80;;;;;;5115873;28;20048;-78
2022/07/20 01:59:34;;;;;;;5.60;3.00;;;23.00;71.40;;;;;;5098513;28;20112;-78
2022/07/20 02:02:01;;;;;;;6.88;3.00;;;22.90;70.60;;;;;;5115015;28;20104;-79
2022/07/20 02:04:28;;;;;;;7.20;3.13;;;22.90;70.80;;;;;;5116551;28;20044;-78
2022/07/20 02:06:55;;;;;;;9.82;3.15;;;22.90;71.10;;;;;;5098151;28;20176;-79
2022/07/20 02:09:22;;;;;;;4.57;3.10;;;22.90;71.20;;;;;;5133358;27;20047;-78
2022/07/20 02:11:49;;;;;;;10.48;3.25;;;22.80;71.20;;;;;;5136939;27;20047;-78
2022/07/20 02:14:17;;;;;;;7.13;3.20;;;22.80;71.30;;;;;;5118855;27;20051;-79
2022/07/20 02:16:44;;;;;;;8.70;3.00;;;22.70;71.20;;;;;;5136247;27;20059;-79
2022/07/20 02:19:11;;;;;;;4.65;2.97;;;22.70;71.50;;;;;;5118842;27;20100;-79
2022/07/20 02:21:38;;;;;;;5.50;2.88;;;22.60;71.50;;;;;;5118786;27;20116;-79
2022/07/20 02:24:05;;;;;;;5.95;3.25;;;22.60;71.70;;;;;;5118742;27;20093;-79
2022/07/20 02:26:32;;;;;;;6.18;3.53;;;22.60;71.70;;;;;;5098318;28;20429;-79
2022/07/20 02:28:59;;;;;;;6.32;3.20;;;22.50;71.60;;;;;;5116257;28;20576;-79
2022/07/20 02:31:27;;;;;;;4.85;2.70;;;22.60;71.60;;;;;;5097577;28;20179;-79
2022/07/20 02:33:54;;;;;;;8.07;3.20;;;22.60;71.50;;;;;;5098208;28;20108;-80
2022/07/20 02:36:21;;;;;;;8.73;3.00;;;22.60;71.50;;;;;;5115928;28;20059;-79
2022/07/20 02:38:48;;;;;;;7.28;3.17;;;22.60;71.40;;;;;;5098546;28;20068;-80
2022/07/20 02:41:15;;;;;;;9.45;4.57;;;22.60;71.10;;;;;;5116094;28;20052;-80
2022/07/20 02:43:42;;;;;;;6.20;3.00;;;22.60;71.10;;;;;;5115352;28;20105;-79
2022/07/20 02:46:09;;;;;;;10.45;3.33;;;22.60;70.70;;;;;;5097824;28;20089;-80
2022/07/20 02:48:38;;;;;;;5.63;3.03;;;22.60;70.70;;;;;;5121307;27;20051;-80
2022/07/20 02:51:05;;;;;;;6.85;2.85;;;22.70;70.40;;;;;;5117204;27;20136;-79
2022/07/20 02:53:32;;;;;;;8.43;3.00;;;22.70;70.10;;;;;;5118656;27;20055;-80
2022/07/20 02:55:59;;;;;;;5.72;3.30;;;22.70;70.00;;;;;;5118118;27;20494;-79
2022/07/20 02:58:26;;;;;;;5.82;2.92;;;22.70;70.10;;;;;;5117326;27;20051;-79
2022/07/20 03:00:53;;;;;;;7.93;3.05;;;22.70;70.00;;;;;;5136339;27;20567;-79
2022/07/20 03:03:20;;;;;;;5.85;3.20;;;22.70;70.00;;;;;;5117314;27;20047;-79
2022/07/20 03:05:48;;;;;;;5.88;3.35;;;22.70;70.10;;;;;;5136310;27;20092;-80
2022/07/20 03:08:15;;;;;;;9.18;3.30;;;22.70;70.10;;;;;;5135948;27;20054;-79
2022/07/20 03:10:42;;;;;;;6.35;2.97;;;22.70;70.30;;;;;;5117225;27;20062;-80
2022/07/20 03:13:09;;;;;;;6.25;3.20;;;22.60;70.30;;;;;;5134528;27;20047;-78
2022/07/20 03:15:35;;;;;;;5.82;3.17;;;22.60;70.50;;;;;;5117581;27;20059;-79
2022/07/20 03:18:02;;;;;;;7.72;3.15;;;22.60;70.60;;;;;;5135760;27;20101;-80
2022/07/20 03:20:31;;;;;;;7.80;3.00;;;22.60;70.70;;;;;;5117087;27;20402;-80
2022/07/20 03:23:02;;;;;;;8.23;3.65;;;22.60;70.80;;;;;;5116291;27;20047;-77
2022/07/20 03:25:29;;;;;;;5.93;3.10;;;22.60;70.90;;;;;;5117084;27;20047;-78
2022/07/20 03:27:58;;;;;;;7.15;3.45;;;22.60;70.90;;;;;;5134576;27;20043;-80
2022/07/20 03:30:26;;;;;;;4.88;3.35;;;22.50;70.80;;;;;;5135343;27;20055;-80
2022/07/20 03:32:54;;;;;;;4.93;3.05;;;22.50;70.70;;;;;;5134977;27;20067;-79
2022/07/20 03:35:21;;;;;;;5.43;3.25;;;22.60;70.70;;;;;;5116152;27;20579;-78
2022/07/20 03:37:48;;;;;;;9.20;3.60;;;22.50;70.60;;;;;;5123264;27;20168;-79
2022/07/20 03:40:16;;;;;;;4.78;2.70;;;22.50;71.30;;;;;;5095949;28;20051;-79
2022/07/20 03:42:43;;;;;;;21.45;4.47;;;22.60;70.70;;;;;;5114923;28;20054;-79
2022/07/20 03:45:11;;;;;;;5.03;2.97;;;22.50;70.60;;;;;;5096849;28;20184;-78
2022/07/20 03:47:38;;;;;;;6.95;3.20;;;22.50;70.60;;;;;;5095415;28;20109;-78
2022/07/20 03:50:05;;;;;;;10.93;3.70;;;22.50;70.60;;;;;;5114734;28;20100;-79
2022/07/20 03:52:32;;;;;;;4.97;3.00;;;22.50;70.80;;;;;;5122951;27;20444;-78
2022/07/20 03:54:59;;;;;;;6.45;3.40;;;22.50;70.80;;;;;;5103759;27;20444;-79
2022/07/20 03:57:27;;;;;;;7.78;3.10;;;22.50;70.80;;;;;;5130502;27;20039;-80
2022/07/20 03:59:54;;;;;;;6.35;3.30;;;22.50;70.70;;;;;;5129898;27;20475;-79
2022/07/20 04:02:21;;;;;;;6.93;3.28;;;22.50;70.70;;;;;;5129745;27;20518;-79
2022/07/20 04:04:48;;;;;;;5.13;3.40;;;22.50;70.80;;;;;;5110037;27;20047;-79
2022/07/20 04:07:15;;;;;;;5.18;3.10;;;22.50;70.90;;;;;;5127853;27;20089;-79
2022/07/20 04:09:44;;;;;;;4.70;3.33;;;22.50;70.70;;;;;;5131078;27;20059;-78
2022/07/20 04:12:14;;;;;;;5.17;2.93;;;22.50;70.80;;;;;;5132492;27;20047;-79
2022/07/20 04:14:42;;;;;;;6.43;3.28;;;22.50;70.50;;;;;;5113184;27;20529;-79
2022/07/20 04:17:09;;;;;;;9.73;3.22;;;22.50;70.50;;;;;;5113592;27;20399;-79
2022/07/20 04:19:37;;;;;;;5.57;3.28;;;22.60;70.50;;;;;;5114933;28;20112;-78
2022/07/20 04:22:04;;;;;;;8.27;3.08;;;22.60;70.60;;;;;;5127950;28;20050;-79
2022/07/20 04:24:31;;;;;;;4.57;3.30;;;22.60;70.50;;;;;;5129183;28;20055;-78
2022/07/20 04:26:58;;;;;;;5.80;3.10;;;22.60;70.50;;;;;;5124647;28;20101;-78
2022/07/20 04:29:25;;;;;;;6.13;3.10;;;22.60;70.50;;;;;;5107839;28;20059;-78
2022/07/20 04:31:53;;;;;;;7.40;3.30;;;22.60;70.50;;;;;;5118029;28;20449;-80
2022/07/20 04:34:20;;;;;;;7.32;3.92;;;22.60;70.50;;;;;;5138105;28;20065;-78
2022/07/20 04:36:47;;;;;;;6.97;3.22;;;22.70;70.70;;;;;;5117000;28;20039;-78
2022/07/20 04:39:14;;;;;;;5.03;3.17;;;22.70;70.70;;;;;;5137131;28;20084;-79
2022/07/20 04:41:41;;;;;;;6.72;3.17;;;22.70;70.70;;;;;;5138011;28;20108;-80
2022/07/20 04:44:08;;;;;;;7.47;3.40;;;22.70;70.70;;;;;;5121807;28;20105;-79
2022/07/20 04:46:35;;;;;;;10.52;3.95;;;22.80;70.80;;;;;;5108087;28;20051;-80
2022/07/20 04:49:04;;;;;;;6.95;3.08;;;22.70;70.80;;;;;;5134589;28;20051;-80
2022/07/20 04:51:31;;;;;;;8.82;3.63;;;22.80;70.80;;;;;;5132356;28;20092;-76
2022/07/20 04:53:58;;;;;;;6.65;3.40;;;22.80;70.80;;;;;;5113470;28;20128;-79
2022/07/20 04:56:24;;;;;;;5.30;3.20;;;22.90;71.40;;;;;;5111666;28;20513;-79
2022/07/20 04:58:52;;;;;;;5.65;3.45;;;22.90;71.30;;;;;;5112717;28;20105;-78
2022/07/20 05:01:20;;;;;;;5.72;3.13;;;22.90;70.60;;;;;;5101102;28;20051;-78
2022/07/20 05:03:47;;;;;;;6.80;3.15;;;23.00;70.50;;;;;;5114451;28;20131;-77
2022/07/20 05:06:16;;;;;;;7.53;3.30;;;23.00;70.40;;;;;;5121208;28;20452;-78
2022/07/20 05:08:43;;;;;;;9.52;3.88;;;23.10;70.10;;;;;;5094382;28;20052;-77
2022/07/20 05:11:10;;;;;;;9.80;3.38;;;23.20;70.10;;;;;;5128878;28;20111;-79
2022/07/20 05:13:36;;;;;;;14.90;3.70;;;23.30;69.90;;;;;;5110076;28;20103;-78
2022/07/20 05:16:03;;;;;;;6.47;3.45;;;23.30;69.70;;;;;;5119810;27;20562;-78
2022/07/20 05:18:30;;;;;;;4.60;3.22;;;23.50;69.50;;;;;;5130028;27;20070;-78
2022/07/20 05:20:58;;;;;;;7.03;3.10;;;23.70;69.20;;;;;;5123376;28;20108;-79
2022/07/20 05:23:26;;;;;;;5.50;3.45;;;23.80;68.90;;;;;;5104064;28;20083;-78
2022/07/20 05:25:53;;;;;;;7.88;3.13;;;24.00;68.70;;;;;;5126612;28;20187;-80
2022/07/20 05:28:20;;;;;;;5.55;3.17;;;24.10;68.50;;;;;;5134993;28;20436;-79
2022/07/20 05:30:47;;;;;;;7.88;3.53;;;24.20;68.50;;;;;;5129102;28;20112;-79
2022/07/20 05:33:14;;;;;;;6.45;3.78;;;24.30;68.60;;;;;;5115102;28;20047;-77
2022/07/20 05:35:41;;;;;;;6.07;3.67;;;24.40;68.30;;;;;;5129237;27;20052;-77
2022/07/20 05:38:08;;;;;;;5.50;3.50;;;24.60;68.10;;;;;;5106915;27;20130;-77
2022/07/20 05:40:36;;;;;;;10.85;3.53;;;24.60;68.00;;;;;;5111451;27;20047;-78
2022/07/20 05:43:03;;;;;;;6.10;3.08;;;24.70;67.70;;;;;;5114129;27;20058;-78
2022/07/20 05:45:30;;;;;;;8.75;3.38;;;24.80;67.50;;;;;;5111758;27;20047;-77
2022/07/20 05:47:57;;;;;;;6.75;3.97;;;24.90;67.30;;;;;;5129464;27;20051;-79
2022/07/20 05:50:24;;;;;;;6.88;3.55;;;25.00;67.20;;;;;;5115320;27;20392;-79
2022/07/20 05:52:51;;;;;;;11.95;3.30;;;25.10;67.10;;;;;;5114805;27;20074;-78
2022/07/20 05:55:18;;;;;;;6.32;3.30;;;25.10;66.90;;;;;;5112879;27;20112;-77
2022/07/20 05:57:46;;;;;;;7.45;3.53;;;25.20;67.10;;;;;;5132390;27;20128;-75
2022/07/20 06:00:14;;;;;;;5.68;3.35;;;25.30;67.20;;;;;;5127204;27;20051;-78
2022/07/20 06:02:41;;;;;;;8.65;3.50;;;25.40;67.40;;;;;;5132829;27;20104;-77
2022/07/20 06:05:09;;;;;;;5.45;3.28;;;25.50;67.40;;;;;;5116862;27;20059;-76
2022/07/20 06:07:36;;;;;;;8.27;3.10;;;25.60;67.20;;;;;;5117491;27;20075;-75
2022/07/20 06:10:04;;;;;;;7.85;3.65;;;25.70;67.20;;;;;;5129632;27;20491;-78
2022/07/20 06:12:31;;;;;;;9.50;3.22;;;25.80;67.30;;;;;;5130162;27;20119;-78
2022/07/20 06:14:59;;;;;;;7.78;3.47;;;25.90;67.40;;;;;;5112061;27;20191;-78
2022/07/20 06:17:33;;;;;;;6.57;2.97;;;26.00;67.20;;;;;;5112682;27;20040;-77
2022/07/20 06:20:04;;;;;;;10.73;3.47;;;26.20;67.20;;;;;;5114568;27;20086;-77
2022/07/20 06:22:31;;;;;;;5.07;3.67;;;26.30;67.30;;;;;;5116233;27;20055;-76
2022/07/20 06:24:58;;;;;;;4.43;3.25;;;26.40;67.50;;;;;;5113351;27;20046;-77
2022/07/20 06:27:25;;;;;;;5.60;3.53;;;26.50;67.60;;;;;;5135429;27;20067;-77
2022/07/20 06:29:52;;;;;;;6.18;3.40;;;26.70;67.70;;;;;;5110274;27;20387;-78
2022/07/20 06:32:20;;;;;;;10.40;3.53;;;26.80;67.80;;;;;;5134384;27;20103;-78
2022/07/20 06:34:47;;;;;;;8.40;3.75;;;27.00;67.80;;;;;;5104861;27;20055;-79
2022/07/20 06:37:13;;;;;;;6.15;3.63;;;27.20;67.30;;;;;;5136107;27;20055;-79
2022/07/20 06:39:40;;;;;;;10.52;4.35;;;27.40;67.00;;;;;;5135905;27;20408;-78
2022/07/20 06:42:07;;;;;;;9.55;3.92;;;27.60;66.90;;;;;;5136122;27;20050;-79
2022/07/20 06:44:34;;;;;;;10.80;3.70;;;27.80;67.00;;;;;;5118535;27;20104;-79
2022/07/20 06:47:01;;;;;;;12.73;4.15;;;28.00;67.10;;;;;;5117405;27;20482;-77
2022/07/20 06:49:29;;;;;;;13.25;4.95;;;28.20;67.10;;;;;;5117863;27;20043;-79
2022/07/20 06:51:57;;;;;;;7.97;4.03;;;28.50;66.90;;;;;;5110399;27;20047;-80
2022/07/20 06:54:24;;;;;;;7.78;3.58;;;28.80;66.20;;;;;;5113146;27;20059;-79
2022/07/20 06:56:51;;;;;;;10.48;3.85;;;29.20;65.50;;;;;;5116852;27;20103;-79
2022/07/20 06:59:18;;;;;;;6.40;3.63;;;29.40;64.50;;;;;;5116972;27;20380;-81
2022/07/20 07:01:44;;;;;;;8.52;3.63;;;29.70;63.00;;;;;;5135431;27;20481;-80
2022/07/20 07:04:11;;;;;;;6.97;3.65;;;30.10;62.10;;;;;;5130274;27;20124;-78
2022/07/20 07:06:40;;;;;;;7.75;4.25;;;30.40;61.20;;;;;;5117160;27;20047;-79
2022/07/20 07:09:08;;;;;;;11.10;4.13;;;30.80;60.50;;;;;;5117125;27;20083;-78
2022/07/20 07:11:35;;;;;;;9.93;3.88;;;31.00;60.20;;;;;;5134952;27;20053;-79
2022/07/20 07:14:02;;;;;;;7.35;3.92;;;31.20;59.90;;;;;;5135195;27;20150;-79
2022/07/20 07:16:29;;;;;;;11.68;4.35;;;31.40;59.90;;;;;;5135102;27;20043;-80
2022/07/20 07:18:56;;;;;;;13.55;4.35;;;31.60;60.40;;;;;;5115577;27;20047;-79
2022/07/20 07:21:22;;;;;;;13.52;5.07;;;31.90;59.60;;;;;;5119378;27;20055;-79
2022/07/20 07:23:51;;;;;;;10.02;4.65;;;32.10;59.10;;;;;;5115617;27;20040;-79
2022/07/20 07:26:17;;;;;;;9.02;3.83;;;32.20;58.80;;;;;;5096294;28;20055;-80
2022/07/20 07:28:45;;;;;;;10.63;4.15;;;32.40;58.70;;;;;;5114564;28;20543;-81
2022/07/20 07:31:12;;;;;;;10.68;4.35;;;32.60;58.90;;;;;;5114857;28;20083;-80
2022/07/20 07:33:39;;;;;;;11.77;4.55;;;32.80;59.00;;;;;;5108950;27;20043;-81
2022/07/20 07:36:06;;;;;;;6.38;4.40;;;33.00;58.90;;;;;;5130536;27;20108;-78
2022/07/20 07:38:33;;;;;;;9.95;4.75;;;33.20;58.80;;;;;;5114386;27;20070;-81
2022/07/20 07:41:02;;;;;;;10.48;5.45;;;33.50;58.60;;;;;;5134221;27;20089;-79
2022/07/20 07:43:29;;;;;;;9.80;5.88;;;33.60;58.70;;;;;;5134995;27;20180;-79
2022/07/20 07:45:56;;;;;;;9.32;5.07;;;33.80;58.90;;;;;;5134801;27;20069;-79
2022/07/20 07:48:23;;;;;;;11.48;5.22;;;34.00;59.20;;;;;;5115117;27;20457;-80
2022/07/20 07:50:50;;;;;;;11.85;5.80;;;33.90;59.30;;;;;;5104802;27;20071;-80
2022/07/20 07:53:17;;;;;;;8.93;5.82;;;33.70;59.50;;;;;;5134132;27;20047;-79
2022/07/20 07:55:45;;;;;;;12.32;5.25;;;34.10;59.50;;;;;;5102557;28;20565;-80
2022/07/20 07:58:13;;;;;;;6.97;5.07;;;33.90;59.50;;;;;;5095957;28;20092;-79
2022/07/20 08:00:41;;;;;;;10.55;5.43;;;33.90;59.70;;;;;;5095560;28;20430;-81
2022/07/20 08:03:09;;;;;;;10.77;5.57;;;34.30;60.00;;;;;;5095937;28;20056;-79
2022/07/20 08:05:36;;;;;;;12.52;5.85;;;34.30;59.90;;;;;;5095759;28;20442;-80
2022/07/20 08:08:07;;;;;;;11.35;5.90;;;34.40;59.80;;;;;;5128684;27;20095;-80
2022/07/20 08:10:35;;;;;;;8.65;5.70;;;34.50;60.10;;;;;;5134514;27;20055;-80
2022/07/20 08:13:02;;;;;;;11.15;5.82;;;34.50;60.20;;;;;;5116306;27;20046;-80
2022/07/20 08:15:30;;;;;;;11.02;6.28;;;34.60;60.70;;;;;;5116089;28;20139;-79
2022/07/20 08:17:57;;;;;;;8.32;6.88;;;34.80;61.20;;;;;;5116085;28;20490;-80
2022/07/20 08:20:24;;;;;;;11.32;7.07;;;34.90;61.50;;;;;;5116088;28;20452;-79
2022/07/20 08:22:52;;;;;;;10.48;6.88;;;35.10;61.60;;;;;;5130559;28;20461;-80
2022/07/20 08:25:19;;;;;;;12.18;7.30;;;35.40;61.60;;;;;;5095572;28;20051;-80
2022/07/20 08:27:46;;;;;;;11.68;7.22;;;35.50;61.40;;;;;;5101625;28;20092;-81
2022/07/20 08:30:13;;;;;;;16.95;7.30;;;35.70;61.40;;;;;;5115410;28;20051;-80
2022/07/20 08:32:42;;;;;;;12.90;7.38;;;36.00;61.20;;;;;;5133091;28;20085;-79
2022/07/20 08:35:10;;;;;;;22.13;8.67;;;35.80;61.20;;;;;;5127422;28;20048;-80
2022/07/20 08:37:37;;;;;;;16.52;8.85;;;35.70;61.40;;;;;;5095735;28;20308;-80
2022/07/20 08:40:05;;;;;;;15.73;8.07;;;35.70;61.90;;;;;;5114483;28;20052;-80
2022/07/20 08:42:32;;;;;;;14.93;8.90;;;35.60;62.50;;;;;;5122099;28;20055;-79
2022/07/20 08:44:59;;;;;;;15.95;9.75;;;35.80;62.50;;;;;;5134288;28;20096;-79
2022/07/20 08:47:30;;;;;;;13.55;9.77;;;35.80;62.80;;;;;;5113095;28;20533;-80
2022/07/20 08:49:59;;;;;;;19.50;10.18;;;36.10;62.60;;;;;;5113350;28;20052;-79
2022/07/20 08:52:25;;;;;;;20.63;10.60;;;35.90;62.70;;;;;;5098557;28;20052;-80
2022/07/20 08:54:53;;;;;;;17.38;11.48;;;35.70;63.40;;;;;;5093390;28;20101;-80
2022/07/20 08:57:19;;;;;;;17.88;11.55;;;35.50;63.90;;;;;;5092286;28;20079;-80
2022/07/20 08:59:48;;;;;;;19.08;11.07;;;35.60;63.80;;;;;;5092799;28;20117;-80
2022/07/20 09:02:16;;;;;;;17.67;11.40;;;35.70;63.80;;;;;;5099395;28;20082;-79
2022/07/20 09:04:55;;;;;;;20.50;12.20;;;35.70;63.80;;;;;;5101426;28;20134;-79
2022/07/20 09:10:19;;;;;;;17.08;12.85;;;36.00;63.60;;;;;;5091606;27;20389;-80
2022/07/20 09:13:05;;;;;;;20.05;12.55;;;36.10;64.00;;;;;;5096555;28;20056;-81
2022/07/20 09:15:36;;;;;;;21.40;12.88;;;36.50;63.80;;;;;;5096582;28;20155;-79
2022/07/20 09:18:09;;;;;;;17.48;12.65;;;36.70;63.70;;;;;;5087229;28;20053;-80
2022/07/20 09:20:39;;;;;;;18.33;12.77;;;36.80;63.20;;;;;;5094744;28;20092;-79
2022/07/20 09:23:07;;;;;;;18.90;13.35;;;36.80;63.10;;;;;;5075193;28;20049;-79
2022/07/20 09:25:36;;;;;;;22.90;12.63;;;36.60;63.10;;;;;;5076285;28;20053;-80
2022/07/20 09:28:03;;;;;;;20.58;14.20;;;36.30;63.70;;;;;;5073309;28;20052;-79
2022/07/20 09:30:30;;;;;;;19.00;13.07;;;36.40;64.20;;;;;;5071883;28;20084;-80
2022/07/20 09:33:00;;;;;;;21.95;13.65;;;35.70;64.70;;;;;;5071697;28;20529;-79
2022/07/20 09:35:30;;;;;;;24.05;14.23;;;35.90;65.40;;;;;;5070354;28;20451;-80
2022/07/20 09:38:00;;;;;;;24.95;15.07;;;36.00;64.80;;;;;;5088332;28;20131;-80
2022/07/20 09:40:26;;;;;;;25.80;15.15;;;36.00;64.70;;;;;;5069839;28;20106;-80
2022/07/20 09:42:55;;;;;;;26.55;15.30;;;36.10;64.00;;;;;;5085637;28;20520;-80
2022/07/20 09:45:27;;;;;;;27.27;15.70;;;36.00;64.40;;;;;;5069114;28;20118;-80
2022/07/20 09:48:13;;;;;;;20.42;13.98;;;35.90;64.80;;;;;;5068801;28;20689;-80
2022/07/20 09:50:43;;;;;;;22.25;14.27;;;36.60;64.30;;;;;;5068898;28;20099;-79
2022/07/20 09:53:11;;;;;;;19.25;13.90;;;36.50;64.10;;;;;;5070056;28;20055;-81
2022/07/20 09:55:39;;;;;;;21.92;13.70;;;36.50;63.90;;;;;;5070306;28;20049;-80
2022/07/20 09:58:09;;;;;;;18.80;13.93;;;36.70;63.20;;;;;;5068790;28;20114;-80
2022/07/20 10:00:37;;;;;;;19.75;13.32;;;36.40;62.30;;;;;;5069381;28;20535;-79
2022/07/20 10:03:06;;;;;;;23.33;13.73;;;36.30;62.40;;;;;;5069060;28;20053;-81
2022/07/20 10:05:36;;;;;;;18.03;13.60;;;36.40;62.60;;;;;;5069590;28;20396;-79
2022/07/20 10:08:06;;;;;;;25.48;15.18;;;36.70;61.60;;;;;;5068135;28;20505;-79
2022/07/20 10:10:34;;;;;;;16.80;13.13;;;36.70;61.60;;;;;;5068736;28;20060;-79
2022/07/20 10:13:01;;;;;;;18.80;14.27;;;36.50;61.60;;;;;;5068373;28;20048;-80
2022/07/20 10:15:36;;;;;;;23.35;11.98;;;36.50;59.60;;;;;;5068495;28;20504;-79
2022/07/20 10:18:08;;;;;;;22.40;12.48;;;36.10;58.00;;;;;;5068701;28;20061;-80
2022/07/20 10:20:37;;;;;;;18.58;11.05;;;36.50;58.10;;;;;;5062032;28;20049;-80
2022/07/20 10:23:27;;;;;;;16.83;11.48;;;36.40;58.10;;;;;;5056312;28;20497;-80
2022/07/20 10:25:54;;;;;;;16.05;11.75;;;36.60;58.30;;;;;;5056390;28;20044;-80
2022/07/20 10:28:42;;;;;;;22.35;12.18;;;37.00;58.80;;;;;;5054642;28;20483;-80
2022/07/20 10:31:16;;;;;;;17.15;11.45;;;37.40;59.00;;;;;;5050515;28;20056;-78
2022/07/20 10:33:44;;;;;;;19.17;10.88;;;37.30;58.70;;;;;;5056125;28;20057;-79
2022/07/20 10:39:34;;;;;;;13.63;10.10;;;37.50;58.00;;;;;;5052042;28;20076;-80
2022/07/20 10:42:20;;;;;;;15.57;9.82;;;37.50;58.10;;;;;;5047914;28;20060;-80
2022/07/20 10:44:47;;;;;;;15.57;9.75;;;37.60;57.50;;;;;;5054927;28;20099;-81
2022/07/20 10:47:43;;;;;;;15.07;9.00;;;37.40;57.90;;;;;;5055320;28;20124;-80
2022/07/20 10:50:11;;;;;;;20.90;8.82;;;37.30;57.90;;;;;;5055414;28;20133;-80
2022/07/20 10:52:38;;;;;;;11.48;7.90;;;37.40;57.60;;;;;;5056156;28;20554;-80
2022/07/20 10:55:06;;;;;;;12.57;7.43;;;37.30;57.10;;;;;;5055440;28;20053;-80
2022/07/20 10:57:33;;;;;;;17.90;8.55;;;37.30;56.70;;;;;;5054232;28;20521;-80
2022/07/20 11:00:02;;;;;;;13.68;7.90;;;37.10;56.60;;;;;;5054742;28;20056;-80
2022/07/20 11:02:32;;;;;;;10.80;8.00;;;36.80;56.80;;;;;;5054744;28;20056;-79
2022/07/20 11:05:01;;;;;;;16.20;8.45;;;37.10;57.20;;;;;;5055323;28;20049;-80
2022/07/20 11:07:32;;;;;;;13.73;7.63;;;37.00;56.70;;;;;;5054726;28;20133;-80
2022/07/20 11:10:00;;;;;;;13.35;8.13;;;37.20;56.50;;;;;;5053535;28;20049;-79
2022/07/20 11:12:29;;;;;;;11.97;7.90;;;37.40;56.20;;;;;;5053365;28;20178;-80
2022/07/20 11:14:56;;;;;;;14.18;8.18;;;37.50;56.30;;;;;;5053942;28;20543;-80
2022/07/20 11:17:24;;;;;;;11.43;7.25;;;37.80;56.30;;;;;;5052975;28;20091;-80
2022/07/20 11:19:50;;;;;;;11.52;7.35;;;37.90;56.10;;;;;;5054539;28;20087;-78
2022/07/20 11:22:19;;;;;;;11.77;7.68;;;38.20;55.80;;;;;;5053627;28;20079;-79
2022/07/20 11:24:53;;;;;;;;;;;38.00;56.30;;;;;;5070577;28;20056;-80
2022/07/20 11:27:20;;;;;;;11.07;7.55;;;37.70;55.90;;;;;;5055504;28;20008;-80
2022/07/20 11:29:48;;;;;;;9.70;7.50;;;38.00;55.90;;;;;;5054243;28;20049;-80
2022/07/20 11:32:15;;;;;;;12.73;8.35;;;38.00;55.60;;;;;;5054294;28;20048;-80
2022/07/20 11:34:47;;;;;;;13.98;7.53;;;38.20;55.50;;;;;;5054201;28;20402;-79
2022/07/20 11:37:17;;;;;;;12.45;7.90;;;38.20;55.70;;;;;;5055205;28;20063;-80
2022/07/20 11:39:46;;;;;;;9.52;7.32;;;38.40;55.80;;;;;;5053959;28;20049;-80
2022/07/20 11:42:14;;;;;;;9.90;7.13;;;38.60;55.40;;;;;;5054766;28;20056;-80
2022/07/20 11:44:41;;;;;;;11.20;7.65;;;38.10;55.10;;;;;;5054029;28;20056;-79
2022/07/20 11:47:08;;;;;;;12.85;7.13;;;38.20;55.10;;;;;;5052586;28;20049;-79
2022/07/20 11:49:35;;;;;;;12.55;7.55;;;38.20;55.30;;;;;;5053166;28;20554;-80
2022/07/20 11:52:05;;;;;;;16.50;7.53;;;38.20;55.50;;;;;;5054043;28;20103;-80
2022/07/20 11:54:35;;;;;;;11.80;7.57;;;37.90;55.90;;;;;;5052414;28;20136;-80
2022/07/20 11:57:04;;;;;;;14.45;7.10;;;38.00;56.30;;;;;;5052338;28;20059;-81
2022/07/20 11:59:31;;;;;;;;;;;38.20;56.10;;;;;;5052792;28;20041;-80
2022/07/20 12:02:00;;;;;;;16.20;6.97;;;38.00;54.20;;;;;;5052588;28;20361;-80
2022/07/20 12:04:28;;;;;;;14.07;5.85;;;37.80;55.40;;;;;;5054034;28;20052;-80
2022/07/20 12:06:57;;;;;;;10.13;6.40;;;37.90;55.40;;;;;;5052726;28;20440;-79
2022/07/20 12:09:34;;;;;;;10.90;5.68;;;38.20;55.50;;;;;;5054042;28;20057;-81
2022/07/20 12:12:05;;;;;;;8.50;5.22;;;38.20;54.80;;;;;;5033899;28;20060;-80
2022/07/20 12:14:34;;;;;;;8.38;4.85;;;38.10;54.10;;;;;;5033798;28;20053;-79
2022/07/20 12:17:14;;;;;;;10.35;5.50;;;38.10;54.30;;;;;;5043752;28;20041;-80
2022/07/20 12:19:42;;;;;;;12.73;5.10;;;38.10;53.90;;;;;;5053631;28;20456;-80
2022/07/20 12:22:15;;;;;;;9.43;5.18;;;38.10;54.10;;;;;;5053558;28;20053;-80
2022/07/20 12:24:56;;;;;;;11.02;5.13;;;38.00;53.70;;;;;;5052923;28;20044;-81
2022/07/20 12:27:26;;;;;;;10.02;5.50;;;37.70;54.20;;;;;;5053941;28;20052;-79
2022/07/20 12:29:54;;;;;;;7.95;5.30;;;38.00;54.10;;;;;;5053571;28;20094;-80
2022/07/20 12:32:29;;;;;;;8.43;5.60;;;38.00;53.90;;;;;;5053549;28;20048;-80
2022/07/20 12:34:58;;;;;;;9.15;5.40;;;38.40;54.10;;;;;;5051890;28;20595;-79
2022/07/20 12:37:24;;;;;;;;;;;38.40;54.40;;;;;;5048735;28;20064;-80
2022/07/20 12:39:54;;;;;;;10.07;6.10;;;38.00;54.10;;;;;;5048433;28;19920;-79
2022/07/20 12:42:23;;;;;;;10.75;6.70;;;37.90;54.30;;;;;;5037096;28;20053;-79
2022/07/20 12:44:59;;;;;;;8.88;6.50;;;37.40;55.10;;;;;;5033232;28;20141;-80
2022/07/20 12:47:26;;;;;;;13.70;7.40;;;37.50;55.30;;;;;;5032653;28;20085;-80
2022/07/20 12:49:53;;;;;;;12.32;7.80;;;37.40;54.50;;;;;;5039246;28;20482;-80
2022/07/20 12:52:20;;;;;;;12.45;7.47;;;37.50;54.30;;;;;;5046340;28;20064;-79
2022/07/20 12:54:47;;;;;;;11.55;7.18;;;37.40;54.50;;;;;;5048104;28;20045;-80
2022/07/20 12:57:16;;;;;;;11.18;7.30;;;37.50;54.90;;;;;;5031224;28;20076;-78